createdAt,value
2022-11-09T00:02:11.469Z,7.20
2022-11-09T00:04:42.586Z,7.20
2022-11-09T00:07:12.615Z,7.30
2022-11-09T00:09:43.908Z,7.30
2022-11-09T00:12:15.335Z,7.30
2022-11-09T00:14:46.985Z,7.50
2022-11-09T00:17:18.346Z,7.60
2022-11-09T00:19:49.780Z,7.50
2022-11-09T00:22:20.891Z,7.40
2022-11-09T00:24:50.773Z,7.40
2022-11-09T00:27:22.152Z,7.40
2022-11-09T00:29:53.353Z,7.50
2022-11-09T00:32:27.812Z,7.80
2022-11-09T00:34:57.659Z,7.90
2022-11-09T00:37:31.079Z,8.00
2022-11-09T00:40:02.326Z,8.00
2022-11-09T00:42:33.677Z,8.10
2022-11-09T00:45:05.470Z,8.10
2022-11-09T00:47:36.712Z,8.10
2022-11-09T00:50:09.929Z,8.00
2022-11-09T00:52:41.149Z,7.80
2022-11-09T00:55:12.299Z,7.80
2022-11-09T00:57:43.506Z,7.70
2022-11-09T01:00:18.023Z,7.70
2022-11-09T01:02:50.573Z,7.80
2022-11-09T01:05:22.035Z,7.70
2022-11-09T01:07:53.201Z,7.60
2022-11-09T01:10:24.610Z,7.50
2022-11-09T01:12:55.815Z,7.50
2022-11-09T01:15:28.955Z,7.50
2022-11-09T01:18:00.229Z,7.50
2022-11-09T01:20:31.461Z,7.40
2022-11-09T01:23:02.688Z,7.40
2022-11-09T01:25:33.875Z,7.30
2022-11-09T01:28:05.940Z,7.20
2022-11-09T01:30:38.809Z,7.20
2022-11-09T01:33:12.817Z,7.20
2022-11-09T01:35:44.070Z,7.20
2022-11-09T01:38:15.390Z,7.10
2022-11-09T01:40:46.583Z,7.10
2022-11-09T01:43:19.351Z,7.00
2022-11-09T01:45:54.227Z,7.00
2022-11-09T01:48:29.293Z,7.00
2022-11-09T01:51:03.987Z,7.00
2022-11-09T01:53:38.271Z,7.10
2022-11-09T01:56:12.910Z,7.10
2022-11-09T01:58:47.486Z,7.20
2022-11-09T02:01:19.722Z,7.20
2022-11-09T02:03:54.348Z,7.30
2022-11-09T02:06:28.730Z,7.30
2022-11-09T02:09:03.272Z,7.30
2022-11-09T02:11:57.555Z,7.30
2022-11-09T02:14:30.909Z,7.40
2022-11-09T02:17:02.239Z,7.40
2022-11-09T02:19:33.458Z,7.50
2022-11-09T02:22:04.812Z,7.60
2022-11-09T02:24:35.968Z,7.70
2022-11-09T02:27:07.914Z,7.90
2022-11-09T02:29:41.849Z,8.20
2022-11-09T02:32:16.003Z,8.40
2022-11-09T02:34:47.292Z,8.70
2022-11-09T02:37:28.237Z,9.00
2022-11-09T02:40:02.054Z,9.10
2022-11-09T02:42:33.548Z,8.90
2022-11-09T02:45:05.187Z,8.70
2022-11-09T02:47:36.360Z,8.60
2022-11-09T02:50:08.783Z,8.50
2022-11-09T02:52:40.146Z,8.40
2022-11-09T02:55:12.095Z,8.30
2022-11-09T02:57:43.387Z,8.20
2022-11-09T03:00:15.461Z,8.10
2022-11-09T03:02:46.810Z,8.00
2022-11-09T03:05:18.170Z,8.00
2022-11-09T03:07:49.387Z,8.00
2022-11-09T03:10:20.639Z,8.00
2022-11-09T03:12:51.778Z,8.00
2022-11-09T03:15:23.068Z,8.00
2022-11-09T03:17:54.233Z,8.10
2022-11-09T03:20:25.414Z,8.10
2022-11-09T03:23:00.114Z,8.10
2022-11-09T03:25:31.300Z,8.00
2022-11-09T03:28:04.057Z,8.00
2022-11-09T03:30:36.082Z,8.10
2022-11-09T03:33:09.893Z,8.20
2022-11-09T03:35:41.467Z,8.20
2022-11-09T03:38:13.285Z,8.20
2022-11-09T03:40:44.650Z,8.30
2022-11-09T03:43:16.065Z,8.30
2022-11-09T03:45:48.322Z,8.40
2022-11-09T03:48:19.567Z,8.40
2022-11-09T03:50:50.783Z,8.40
2022-11-09T03:53:22.125Z,8.40
2022-11-09T03:55:53.552Z,8.40
2022-11-09T03:58:25.132Z,8.40
2022-11-09T04:00:56.318Z,8.40
2022-11-09T04:03:27.695Z,8.40
2022-11-09T04:06:00.779Z,8.70
2022-11-09T04:08:32.154Z,8.90
2022-11-09T04:11:03.330Z,9.00
2022-11-09T04:13:34.764Z,9.00
2022-11-09T04:16:06.531Z,9.00
2022-11-09T04:18:38.235Z,9.30
2022-11-09T04:21:09.642Z,9.50
2022-11-09T04:23:40.722Z,9.70
2022-11-09T04:26:10.668Z,9.70
2022-11-09T04:28:41.595Z,9.80
2022-11-09T04:31:11.620Z,9.70
2022-11-09T04:33:42.935Z,9.60
2022-11-09T04:36:14.144Z,9.60
2022-11-09T04:38:45.504Z,9.40
2022-11-09T04:41:16.977Z,9.30
2022-11-09T04:43:48.159Z,9.20
2022-11-09T04:46:19.294Z,9.20
2022-11-09T04:48:50.702Z,9.10
2022-11-09T04:51:22.164Z,9.10
2022-11-09T04:53:53.375Z,9.00
2022-11-09T04:56:24.538Z,8.90
2022-11-09T04:58:55.762Z,8.90
2022-11-09T05:01:26.858Z,8.90
2022-11-09T05:03:56.824Z,8.90
2022-11-09T05:06:33.830Z,8.90
2022-11-09T05:09:07.421Z,8.90
2022-11-09T05:11:39.002Z,8.90
2022-11-09T05:14:10.104Z,9.00
2022-11-09T05:16:40.188Z,9.10
2022-11-09T05:19:11.520Z,9.30
2022-11-09T05:21:42.828Z,9.40
2022-11-09T05:24:14.202Z,9.50
2022-11-09T05:26:57.297Z,9.50
2022-11-09T05:29:28.593Z,9.70
2022-11-09T05:31:59.821Z,9.70
2022-11-09T05:34:31.749Z,9.70
2022-11-09T05:37:03.821Z,9.60
2022-11-09T05:39:36.662Z,9.50
2022-11-09T05:42:09.817Z,9.50
2022-11-09T05:44:41.078Z,9.40
2022-11-09T05:47:12.248Z,9.30
2022-11-09T05:49:43.416Z,9.20
2022-11-09T05:52:14.995Z,9.20
2022-11-09T05:54:46.156Z,9.20
2022-11-09T05:57:16.158Z,9.10
2022-11-09T05:59:47.117Z,9.00
2022-11-09T06:02:18.364Z,9.00
2022-11-09T06:04:49.599Z,9.00
2022-11-09T06:07:20.957Z,9.00
2022-11-09T06:09:52.284Z,9.00
2022-11-09T06:12:23.502Z,9.00
2022-11-09T06:14:54.779Z,9.10
2022-11-09T06:17:26.430Z,9.20
2022-11-09T06:19:57.602Z,9.30
2022-11-09T06:22:28.792Z,9.30
2022-11-09T06:24:59.953Z,9.30
2022-11-09T06:27:31.084Z,9.40
2022-11-09T06:30:02.301Z,9.50
2022-11-09T06:32:33.445Z,9.60
2022-11-09T06:35:05.113Z,9.60
2022-11-09T06:37:36.387Z,9.60
2022-11-09T06:40:10.397Z,9.60
2022-11-09T06:42:42.042Z,9.70
2022-11-09T06:45:13.345Z,9.60
2022-11-09T06:47:44.627Z,9.50
2022-11-09T06:50:15.989Z,9.50
2022-11-09T06:52:47.541Z,9.50
2022-11-09T06:55:23.264Z,9.40
2022-11-09T06:57:54.321Z,9.40
2022-11-09T07:00:27.384Z,9.40
2022-11-09T07:02:58.723Z,9.40
2022-11-09T07:05:30.155Z,9.50
2022-11-09T07:08:01.475Z,9.50
2022-11-09T07:10:32.571Z,9.60
2022-11-09T07:13:03.841Z,9.60
2022-11-09T07:15:36.523Z,9.70
2022-11-09T07:18:11.141Z,9.70
2022-11-09T07:20:42.401Z,9.70
2022-11-09T07:23:13.746Z,9.80
2022-11-09T07:25:44.966Z,9.80
2022-11-09T07:28:17.007Z,9.80
2022-11-09T07:30:50.139Z,9.90
2022-11-09T07:33:23.427Z,10.00
2022-11-09T07:35:54.906Z,10.10
2022-11-09T07:38:26.136Z,10.20
2022-11-09T07:41:00.648Z,10.30
2022-11-09T07:43:32.012Z,10.30
2022-11-09T07:46:06.203Z,10.30
2022-11-09T07:48:37.545Z,10.30
2022-11-09T07:51:08.910Z,10.20
2022-11-09T07:53:41.074Z,10.10
2022-11-09T07:56:13.449Z,10.10
2022-11-09T07:58:44.884Z,10.10
2022-11-09T08:01:16.253Z,10.10
2022-11-09T08:03:48.085Z,10.10
2022-11-09T08:06:19.739Z,10.10
2022-11-09T08:08:50.996Z,10.10
2022-11-09T08:11:22.412Z,10.10
2022-11-09T08:13:53.883Z,10.10
2022-11-09T08:16:25.887Z,10.10
2022-11-09T08:18:57.100Z,10.10
2022-11-09T08:21:29.220Z,10.10
2022-11-09T08:24:00.407Z,10.10
2022-11-09T08:26:31.552Z,10.20
2022-11-09T08:29:02.783Z,10.30
2022-11-09T08:31:34.102Z,10.30
2022-11-09T08:34:05.281Z,10.40
2022-11-09T08:36:36.981Z,10.50
2022-11-09T08:39:08.276Z,10.60
2022-11-09T08:41:39.673Z,10.70
2022-11-09T08:44:10.970Z,10.70
2022-11-09T08:46:42.404Z,10.70
2022-11-09T08:49:13.698Z,10.70
2022-11-09T08:51:45.100Z,10.60
2022-11-09T08:54:18.092Z,10.60
2022-11-09T08:56:49.372Z,10.60
2022-11-09T08:59:20.711Z,10.50
2022-11-09T09:01:52.084Z,10.60
2022-11-09T09:04:23.288Z,10.60
2022-11-09T09:06:54.801Z,10.60
2022-11-09T09:09:26.087Z,10.70
2022-11-09T09:11:58.152Z,10.80
2022-11-09T09:14:30.238Z,10.90
2022-11-09T09:17:01.601Z,11.10
2022-11-09T09:19:33.140Z,11.30
2022-11-09T09:22:04.826Z,11.40
2022-11-09T09:24:36.294Z,11.40
2022-11-09T09:27:07.701Z,11.70
2022-11-09T09:29:39.022Z,12.00
2022-11-09T09:32:10.706Z,12.10
2022-11-09T09:34:41.970Z,12.30
2022-11-09T09:37:13.403Z,12.50
2022-11-09T09:39:45.327Z,12.70
2022-11-09T09:42:20.198Z,12.90
2022-11-09T09:44:55.927Z,13.00
2022-11-09T09:47:30.970Z,13.30
2022-11-09T09:50:05.447Z,13.40
2022-11-09T09:52:39.877Z,13.50
2022-11-09T09:55:16.093Z,13.80
2022-11-09T09:57:51.008Z,13.90
2022-11-09T10:00:25.357Z,13.90
2022-11-09T10:02:57.272Z,13.80
2022-11-09T10:05:31.205Z,13.70
2022-11-09T10:08:06.132Z,13.60
2022-11-09T10:10:46.664Z,13.50
2022-11-09T10:13:41.238Z,13.30
2022-11-09T10:16:17.536Z,13.10
2022-11-09T10:18:58.196Z,13.00
2022-11-09T10:21:34.739Z,13.00
2022-11-09T10:24:15.917Z,13.00
2022-11-09T10:26:50.430Z,13.10
2022-11-09T10:29:24.924Z,13.20
2022-11-09T10:31:58.537Z,13.30
2022-11-09T10:34:33.029Z,13.30
2022-11-09T10:37:08.220Z,13.30
2022-11-09T10:39:44.534Z,13.30
2022-11-09T10:42:16.016Z,13.40
2022-11-09T10:44:47.751Z,13.30
2022-11-09T10:47:20.206Z,13.30
2022-11-09T10:50:07.144Z,13.30
2022-11-09T10:52:46.983Z,13.20
2022-11-09T10:55:24.150Z,13.00
2022-11-09T10:57:55.581Z,12.90
2022-11-09T11:00:27.542Z,12.90
2022-11-09T11:02:58.865Z,12.90
2022-11-09T11:05:34.657Z,12.90
2022-11-09T11:11:33.762Z,12.80
2022-11-09T11:14:19.926Z,12.70
2022-11-09T11:16:48.521Z,12.60
2022-11-09T11:19:36.257Z,12.60
2022-11-09T11:22:23.846Z,12.70
2022-11-09T11:25:00.344Z,12.70
2022-11-09T11:27:35.560Z,12.70
2022-11-09T11:30:13.860Z,12.80
2022-11-09T11:32:50.206Z,12.70
2022-11-09T11:35:32.068Z,12.80
2022-11-09T11:38:10.283Z,13.00
2022-11-09T11:40:44.911Z,13.10
2022-11-09T11:43:24.315Z,13.20
2022-11-09T11:46:00.962Z,13.30
2022-11-09T11:49:28.169Z,13.30
2022-11-09T11:52:02.606Z,13.30
2022-11-09T11:54:37.558Z,13.40
2022-11-09T11:57:12.691Z,13.40
2022-11-09T11:59:56.193Z,13.40
2022-11-09T12:02:56.129Z,13.40
2022-11-09T12:09:04.245Z,13.60
2022-11-09T12:11:44.721Z,13.70
2022-11-09T12:14:24.389Z,13.80
2022-11-09T12:16:59.339Z,13.90
2022-11-09T12:19:41.884Z,13.90
2022-11-09T12:22:18.138Z,13.90
2022-11-09T12:24:52.955Z,14.00
2022-11-09T12:27:33.424Z,13.90
2022-11-09T12:30:09.013Z,13.80
2022-11-09T12:32:44.448Z,13.70
2022-11-09T12:35:25.526Z,13.60
2022-11-09T12:38:00.242Z,13.50
2022-11-09T12:40:35.671Z,13.50
2022-11-09T12:43:14.627Z,13.50
2022-11-09T12:45:46.483Z,13.40
2022-11-09T12:48:23.178Z,13.40
2022-11-09T12:50:56.062Z,13.40
2022-11-09T12:53:30.090Z,13.30
2022-11-09T12:56:03.955Z,13.30
2022-11-09T12:58:37.516Z,13.20
2022-11-09T13:01:13.376Z,13.20
2022-11-09T13:03:55.823Z,13.10
2022-11-09T13:06:28.728Z,13.00
2022-11-09T13:09:03.128Z,13.00
2022-11-09T13:11:42.410Z,12.90
2022-11-09T13:14:35.755Z,12.90
2022-11-09T13:17:43.584Z,13.00
2022-11-09T13:20:54.842Z,12.90
2022-11-09T13:23:54.598Z,13.00
2022-11-09T13:26:04.099Z,13.00
2022-11-09T13:28:48.472Z,12.90
2022-11-09T13:31:22.721Z,12.80
2022-11-09T13:33:56.998Z,12.70
2022-11-09T13:36:28.377Z,12.60
2022-11-09T13:39:33.425Z,12.50
2022-11-09T13:42:06.350Z,12.40
2022-11-09T13:44:39.499Z,12.30
2022-11-09T13:47:23.608Z,12.20
2022-11-09T13:49:54.961Z,12.20
2022-11-09T13:52:51.517Z,12.10
2022-11-09T13:55:29.279Z,12.10
2022-11-09T13:58:04.612Z,12.00
2022-11-09T14:00:36.411Z,12.00
2022-11-09T14:03:19.042Z,12.00
2022-11-09T14:05:53.990Z,11.90
2022-11-09T14:08:27.106Z,11.90
2022-11-09T14:11:27.253Z,11.80
2022-11-09T14:14:12.694Z,11.80
2022-11-09T14:16:47.804Z,11.80
2022-11-09T14:19:27.301Z,11.80
2022-11-09T14:21:58.593Z,11.80
2022-11-09T14:24:32.659Z,11.80
2022-11-09T14:27:23.885Z,11.80
2022-11-09T14:29:57.819Z,11.70
2022-11-09T14:32:33.900Z,11.70
2022-11-09T14:38:21.231Z,11.70
2022-11-09T14:40:54.209Z,11.80
2022-11-09T14:43:29.439Z,11.80
2022-11-09T14:46:03.716Z,11.80
2022-11-09T14:48:36.204Z,11.80
2022-11-09T14:51:12.251Z,11.80
2022-11-09T14:53:44.743Z,11.70
2022-11-09T14:56:20.101Z,11.70
2022-11-09T14:58:52.255Z,11.70
2022-11-09T15:01:25.386Z,11.70
2022-11-09T15:04:12.934Z,11.70
2022-11-09T15:06:50.908Z,11.70
2022-11-09T15:09:25.136Z,11.60
2022-11-09T15:11:56.795Z,11.60
2022-11-09T15:14:30.755Z,11.50
2022-11-09T15:17:07.927Z,11.50
2022-11-09T15:19:42.245Z,11.50
2022-11-09T15:22:47.886Z,11.40
2022-11-09T15:25:26.803Z,11.40
2022-11-09T15:28:18.615Z,11.40
2022-11-09T15:30:53.525Z,11.40
2022-11-09T15:33:28.929Z,11.40
2022-11-09T15:36:03.537Z,11.40
2022-11-09T15:38:38.452Z,11.30
2022-11-09T15:41:14.239Z,11.30
2022-11-09T15:43:45.831Z,11.30
2022-11-09T15:46:19.766Z,11.30
2022-11-09T15:48:51.815Z,11.30
2022-11-09T15:51:23.233Z,11.30
2022-11-09T15:53:54.535Z,11.30
2022-11-09T15:56:26.531Z,11.30
2022-11-09T15:58:57.659Z,11.30
2022-11-09T16:01:33.111Z,11.20
2022-11-09T16:04:04.370Z,11.20
2022-11-09T16:06:46.603Z,11.20
2022-11-09T16:09:25.171Z,11.20
2022-11-09T16:12:02.397Z,11.20
2022-11-09T16:14:34.279Z,11.20
2022-11-09T16:17:05.994Z,11.20
2022-11-09T16:19:39.058Z,11.20
2022-11-09T16:22:12.573Z,11.20
2022-11-09T16:24:44.537Z,11.20
2022-11-09T16:27:35.286Z,11.20
2022-11-09T16:29:48.778Z,11.20
2022-11-09T16:32:24.396Z,11.20
2022-11-09T16:35:23.342Z,11.20
2022-11-09T16:37:31.462Z,11.20
2022-11-09T16:40:04.766Z,11.20
2022-11-09T16:42:36.738Z,11.20
2022-11-09T16:45:11.527Z,11.20
2022-11-09T16:47:46.459Z,11.10
2022-11-09T16:50:18.407Z,11.10
2022-11-09T16:52:49.588Z,11.10
2022-11-09T16:55:20.824Z,11.00
2022-11-09T16:57:52.037Z,11.00
2022-11-09T17:00:27.605Z,10.90
2022-11-09T17:02:57.039Z,10.90
2022-11-09T17:05:28.666Z,10.90
2022-11-09T17:08:00.042Z,10.90
2022-11-09T17:10:31.939Z,10.90
2022-11-09T17:13:03.127Z,11.00
2022-11-09T17:15:34.294Z,11.00
2022-11-09T17:18:07.844Z,11.00
2022-11-09T17:20:44.505Z,11.00
2022-11-09T17:23:18.606Z,11.00
2022-11-09T17:25:57.792Z,10.90
2022-11-09T17:28:29.822Z,10.90
2022-11-09T17:31:01.600Z,10.90
2022-11-09T17:33:33.016Z,10.90
2022-11-09T17:36:06.877Z,10.90
2022-11-09T17:38:38.313Z,10.90
2022-11-09T17:41:11.846Z,10.90
2022-11-09T17:43:45.144Z,10.90
2022-11-09T17:46:18.675Z,10.90
2022-11-09T17:48:51.090Z,10.90
2022-11-09T17:51:22.701Z,10.80
2022-11-09T17:53:54.122Z,10.80
2022-11-09T17:56:25.603Z,10.80
2022-11-09T17:58:56.903Z,10.80
2022-11-09T18:01:29.989Z,10.80
2022-11-09T18:04:06.239Z,10.80
2022-11-09T18:06:34.935Z,10.80
2022-11-09T18:11:39.726Z,10.60
2022-11-09T18:14:11.711Z,10.60
2022-11-09T18:16:43.038Z,10.60
2022-11-09T18:19:14.406Z,10.60
2022-11-09T18:21:47.591Z,10.60
2022-11-09T18:24:19.365Z,10.60
2022-11-09T18:26:50.821Z,10.50
2022-11-09T18:29:22.140Z,10.50
2022-11-09T18:31:53.419Z,10.50
2022-11-09T18:34:24.687Z,10.50
2022-11-09T18:36:55.918Z,10.60
2022-11-09T18:39:27.735Z,10.60
2022-11-09T18:42:00.267Z,10.60
2022-11-09T18:44:32.000Z,10.60
2022-11-09T18:47:05.670Z,10.60
2022-11-09T18:49:36.200Z,10.60
2022-11-09T18:52:26.716Z,10.60
2022-11-09T18:54:57.975Z,10.60
2022-11-09T18:57:29.330Z,10.60
2022-11-09T19:00:00.695Z,10.60
2022-11-09T19:02:32.023Z,10.60
2022-11-09T19:05:04.184Z,10.60
2022-11-09T19:07:35.591Z,10.60
2022-11-09T19:10:08.540Z,10.60
2022-11-09T19:12:42.592Z,10.70
2022-11-09T19:15:14.036Z,10.70
2022-11-09T19:17:45.546Z,10.70
2022-11-09T19:20:18.335Z,10.70
2022-11-09T19:22:50.045Z,10.60
2022-11-09T19:25:21.783Z,10.60
2022-11-09T19:27:52.986Z,10.60
2022-11-09T19:30:25.980Z,10.50
2022-11-09T19:32:58.517Z,10.60
2022-11-09T19:35:33.478Z,10.60
2022-11-09T19:38:06.391Z,10.60
2022-11-09T19:40:39.569Z,10.60
2022-11-09T19:43:08.415Z,10.60
2022-11-09T19:45:42.368Z,10.50
2022-11-09T19:48:13.401Z,10.50
2022-11-09T19:50:49.634Z,10.50
2022-11-09T19:53:21.067Z,10.50
2022-11-09T19:55:52.227Z,10.50
2022-11-09T19:58:23.910Z,10.50
2022-11-09T20:01:03.851Z,10.50
2022-11-09T20:03:35.133Z,10.50
2022-11-09T20:06:07.934Z,10.40
2022-11-09T20:08:41.078Z,10.40
2022-11-09T20:11:17.019Z,10.40
2022-11-09T20:13:48.560Z,10.40
2022-11-09T20:16:19.810Z,10.40
2022-11-09T20:18:51.085Z,10.40
2022-11-09T20:21:22.568Z,10.40
2022-11-09T20:23:54.023Z,10.40
2022-11-09T20:26:25.561Z,10.40
2022-11-09T20:28:57.217Z,10.40
2022-11-09T20:31:28.612Z,10.40
2022-11-09T20:34:01.247Z,10.30
2022-11-09T20:36:32.585Z,10.30
2022-11-09T20:39:04.147Z,10.30
2022-11-09T20:41:36.373Z,10.40
2022-11-09T20:44:08.092Z,10.40
2022-11-09T20:46:39.232Z,10.40
2022-11-09T20:49:10.579Z,10.30
2022-11-09T20:51:41.932Z,10.30
2022-11-09T20:54:13.324Z,10.30
2022-11-09T20:56:45.617Z,10.30
2022-11-09T20:59:16.833Z,10.30
2022-11-09T21:01:48.613Z,10.30
2022-11-09T21:04:19.859Z,10.30
2022-11-09T21:06:51.713Z,10.30
2022-11-09T21:09:22.980Z,10.30
2022-11-09T21:12:12.191Z,10.20
2022-11-09T21:14:43.760Z,10.30
2022-11-09T21:17:15.982Z,10.20
2022-11-09T21:19:47.443Z,10.30
2022-11-09T21:22:18.720Z,10.30
2022-11-09T21:25:07.612Z,10.30
2022-11-09T21:27:56.920Z,10.30
2022-11-09T21:30:28.488Z,10.30
2022-11-09T21:32:59.947Z,10.30
2022-11-09T21:35:31.186Z,10.30
2022-11-09T21:38:02.480Z,10.30
2022-11-09T21:40:33.892Z,10.20
2022-11-09T21:43:05.195Z,10.20
2022-11-09T21:45:36.434Z,10.20
2022-11-09T21:48:08.637Z,10.20
2022-11-09T21:50:39.918Z,10.10
2022-11-09T21:53:11.263Z,10.10
2022-11-09T21:55:42.442Z,10.10
2022-11-09T21:58:13.714Z,10.10
2022-11-09T22:00:45.110Z,10.10
2022-11-09T22:03:16.473Z,10.00
2022-11-09T22:05:49.632Z,10.00
2022-11-09T22:08:20.986Z,10.10
2022-11-09T22:10:52.397Z,10.10
2022-11-09T22:13:57.623Z,10.20
2022-11-09T22:19:30.804Z,10.20
2022-11-09T22:22:02.112Z,10.10
2022-11-09T22:24:51.448Z,10.10
2022-11-09T22:27:23.032Z,10.10
2022-11-09T22:29:54.607Z,10.10
2022-11-09T22:32:25.789Z,10.10
2022-11-09T22:34:57.188Z,10.10
2022-11-09T22:37:28.789Z,10.20
2022-11-09T22:40:00.389Z,10.20
2022-11-09T22:42:31.892Z,10.20
2022-11-09T22:45:03.398Z,10.20
2022-11-09T22:47:35.040Z,10.20
2022-11-09T22:50:07.767Z,10.30
2022-11-09T22:52:39.206Z,10.30
2022-11-09T22:55:22.676Z,10.20
2022-11-09T22:57:57.041Z,10.20
2022-11-09T23:00:28.730Z,10.20
2022-11-09T23:03:01.487Z,10.20
2022-11-09T23:05:33.381Z,10.30
2022-11-09T23:08:06.636Z,10.20
2022-11-09T23:10:39.532Z,10.20
2022-11-09T23:13:11.274Z,10.20
2022-11-09T23:15:42.653Z,10.30
2022-11-09T23:18:31.828Z,10.30
2022-11-09T23:21:03.393Z,10.20
2022-11-09T23:23:35.215Z,10.30
2022-11-09T23:26:07.964Z,10.20
2022-11-09T23:28:39.911Z,10.30
2022-11-09T23:31:14.290Z,10.20
2022-11-09T23:33:45.892Z,10.20
2022-11-09T23:36:18.730Z,10.20
2022-11-09T23:38:50.790Z,10.20
2022-11-09T23:41:23.436Z,10.20
2022-11-09T23:43:57.372Z,10.20
2022-11-09T23:46:28.932Z,10.20
2022-11-09T23:49:00.350Z,10.20
2022-11-09T23:51:33.297Z,10.20
2022-11-09T23:54:05.069Z,10.20
2022-11-09T23:56:36.517Z,10.20
2022-11-09T23:59:08.498Z,10.20
